Aeroporto :
LOGIN :

Iscrizione | Disclaimer

   EN    FR    IT 

 










Sommario :    VFR   VFR Marginale   IFR   IFR Intensivo   IFR Molto Intensivo
Visibilità : 
Base nubi : 
>= 8 km
>= 3000ft
5 / 8 km
1000 / 3000 ft
1500m / 5 km
500 / 1000 ft
800 / 1500m
200 / 500 ft
< 800m
< 200 ft
Simboli :   Temporali  Nebbia  Neve Forte  Precipitazioni Forti  Vento > 20 kt
SIGMETs :   Varie  Temporali  Ghiacco  Turbolenza  Onda orograficha  Ceneri Vulcaniche






- Altitudine del aeroporto : 1273 ft
- Codice IATA : LJU


LJLJ - Ljubljana

ULTIMO METAR :
  • 250030Z 18001KT 9999 BKN038 03/02 Q1015 NOSIG

METARs OBSOLETI :
  • 250000Z VRB02KT 9999 BKN038 03/02 Q1015 NOSIG
  • 242330Z VRB01KT 9999 BKN038 03/02 Q1015 NOSIG
  • 242300Z 32001KT 9999 BKN038 04/02 Q1015 NOSIG
  • 242230Z VRB01KT 9999 BKN038 05/04 Q1016 NOSIG
  • 242200Z 30002KT 9999 BKN040 06/04 Q1016 NOSIG

TAF TAF LJLJ
Valido dal 25 a 00 ore il 26 a 00 ore UTC


242300Z 2500/2524 30003KT 9999 BKN035
TEMPO 2500/2506 SCT040
BECMG 2509/2511 25005KT
PROB30
TEMPO 2512/2521 -RA
BECMG 2518/2520 VRB02KT
BECMG 2521/2524 -RA BKN030 OVC060



MetMap, La meteo Aeronautica in un colpo d'occhio ! - Copyright ORBIFLY Dicembre 2007 - Disclaimer

ORBIFLY MET'MAP TEAM :

Programmazione e sviluppo : Alexandra Zaïnal
Concezione : Baudouin d'Aumeries
Aiuto per la programmazione : Marc-Olivier Méhu
Supporto tecnico e logistico : Manuel Goepfert
Aiuto per la traduzione : Arnaldo La Scala

Contatto : metmap@orbifly.com




FONTI E CREDITI :

   NOAA